RJOP(METAR)
06/25 08:00
METAR RJOP 242300Z 29003KT 260V010 9999 FEW030 22/17 Q1016 RMK
1CU030 A3002=
戻る
トップページへ戻る
IMOC Co,.Ltd.